Beziers-Vias Airport


Codes: LFMU/BZR
Name: Beziers-Vias Airport
City: Beziers/Vias
Country: France
Elevation: 56 ft.
Wikipedia:

Photos at Beziers-Vias Airport


   Photos courtesy of SpottingLog. You can add your own sightings and photos by signing up for a free trial today.



No photos found.

Weather at Beziers-Vias Airport


Time (UTC)DescriptionTempratureWindCloud coverageVisibilityPressureHumidity
21-Jun-2024 12:00Clear Sky24°C16 mph, W0%10000m1018hPa50%
21-Jun-2024 15:00Clear Sky24°C16 mph, NW1%10000m1018hPa47%
21-Jun-2024 18:00Clear Sky24°C13 mph, NW1%10000m1018hPa54%
21-Jun-2024 21:00Clear Sky20°C11 mph, W2%10000m1020hPa71%
22-Jun-2024 00:00Clear Sky19°C11 mph, W3%10000m1020hPa71%
22-Jun-2024 03:00Clear Sky17°C11 mph, W3%10000m1020hPa74%
22-Jun-2024 06:00Clear Sky18°C11 mph, W4%10000m1020hPa69%
22-Jun-2024 09:00Scattered Clouds22°C13 mph, NW26%10000m1020hPa47%
22-Jun-2024 12:00Scattered Clouds24°C16 mph, NW29%10000m1019hPa41%
22-Jun-2024 15:00Broken Clouds23°C16 mph, NW70%10000m1018hPa52%
22-Jun-2024 18:00Overcast Clouds21°C13 mph, NW85%10000m1017hPa64%
22-Jun-2024 21:00Overcast Clouds19°C16 mph, NW100%10000m1018hPa62%
23-Jun-2024 00:00Overcast Clouds18°C18 mph, NW100%10000m1017hPa67%
23-Jun-2024 03:00Overcast Clouds18°C20 mph, NW91%10000m1016hPa66%
23-Jun-2024 06:00Broken Clouds18°C16 mph, NW58%10000m1016hPa61%
23-Jun-2024 09:00Clear Sky21°C22 mph, NW0%10000m1015hPa50%
23-Jun-2024 12:00Clear Sky25°C18 mph, NW0%10000m1014hPa35%
23-Jun-2024 15:00Scattered Clouds26°C20 mph, NW37%10000m1013hPa32%
23-Jun-2024 18:00Broken Clouds23°C18 mph, NW66%10000m1014hPa45%
23-Jun-2024 21:00Broken Clouds20°C13 mph, NW55%10000m1015hPa57%
24-Jun-2024 00:00Broken Clouds19°C9 mph, NW66%10000m1015hPa60%
24-Jun-2024 03:00Overcast Clouds18°C9 mph, W97%10000m1014hPa67%
24-Jun-2024 06:00Overcast Clouds19°C7 mph, NW99%10000m1014hPa63%
24-Jun-2024 09:00Broken Clouds24°C7 mph, N79%10000m1013hPa48%
24-Jun-2024 12:00Broken Clouds25°C4 mph, N71%10000m1012hPa44%
24-Jun-2024 15:00Broken Clouds24°C9 mph, SE70%10000m1012hPa53%
24-Jun-2024 18:00Scattered Clouds22°C9 mph, S50%10000m1012hPa58%
24-Jun-2024 21:00Few Clouds20°C2 mph, W20%10000m1013hPa71%
25-Jun-2024 00:00Scattered Clouds19°C4 mph, NE31%10000m1012hPa70%
25-Jun-2024 03:00Few Clouds18°C7 mph, NE23%10000m1011hPa74%
25-Jun-2024 06:00Few Clouds20°C7 mph, NE15%10000m1012hPa73%
25-Jun-2024 09:00Clear Sky23°C9 mph, E5%10000m1011hPa65%
25-Jun-2024 12:00Clear Sky24°C11 mph, E3%10000m1010hPa65%
25-Jun-2024 15:00Clear Sky24°C9 mph, SE0%10000m1009hPa63%
25-Jun-2024 18:00Clear Sky23°C7 mph, SE0%10000m1009hPa70%
25-Jun-2024 21:00Scattered Clouds20°C4 mph, NE38%10000m1009hPa88%
26-Jun-2024 00:00Broken Clouds19°C7 mph, NE65%10000m1008hPa91%
26-Jun-2024 03:00Broken Clouds18°C2 mph, NW77%10000m1008hPa90%
26-Jun-2024 06:00Light Rain19°C4 mph, W85%10000m1009hPa89%
26-Jun-2024 09:00Moderate Rain19°C4 mph, NW100%10000m1010hPa91%